Time;durP1;ratioP1;P1;durP2;ratioP2;P2;SDS_P1;SDS_P2;PMS_P1;PMS_P2;Temp;Humidity;BMP_temperature;BMP_pressure;BME280_temperature;BME280_humidity;BME280_pressure;Samples;Min_cycle;Max_cycle;Signal;HPM_P1;HPM_P2
2023/12/30 12:34:24;;;;;;;1.50;1.40;;;;;;;19.93;65.92;99658.30;86241;298;603198;-55
2023/12/30 12:36:26;;;;;;;1.60;0.80;;;;;;;20.22;64.57;99658.23;88742;284;136481;-57
2023/12/30 12:38:28;;;;;;;2.90;0.90;;;;;;;20.46;63.53;99659.11;88715;288;24523;-57
2023/12/30 12:40:30;;;;;;;1.60;1.10;;;;;;;20.56;62.71;99656.91;88736;288;136029;-57
2023/12/30 12:53:17;;;;;;;5.60;5.00;;;;;;;20.75;48.57;99648.52;85635;299;602824;-75
2023/12/30 12:55:19;;;;;;;6.20;4.50;;;;;;;19.45;46.53;99647.71;88858;281;36567;-76
2023/12/30 12:57:21;;;;;;;5.10;4.70;;;;;;;18.06;48.37;99651.36;88684;281;134939;-72
2023/12/30 12:59:23;;;;;;;6.50;5.90;;;;;;;16.81;50.91;99652.31;89540;270;22246;-70
2023/12/30 13:01:25;;;;;;;6.40;5.70;;;;;;;15.72;53.54;99650.53;88350;280;136201;-66
2023/12/30 13:03:27;;;;;;;7.60;6.90;;;;;;;14.81;56.06;99651.04;86200;284;156611;-67
2023/12/30 13:05:29;;;;;;;12.30;5.60;;;;;;;14.05;58.49;99652.58;86068;275;168192;-66
2023/12/30 13:07:31;;;;;;;5.90;5.50;;;;;;;13.28;61.38;99657.44;86357;275;351882;-67
2023/12/30 13:12:44;;;;;;;7.20;5.50;;;;;;;11.90;67.63;99644.67;88255;287;136499;-66
2023/12/30 13:14:46;;;;;;;11.00;6.40;;;;;;;11.49;70.02;99642.84;88913;286;22396;-67
2023/12/30 13:16:48;;;;;;;9.10;7.60;;;;;;;11.13;72.57;99640.06;88913;286;136258;-66
2023/12/30 13:18:52;;;;;;;7.70;6.90;;;;;;;10.88;74.61;99633.66;88982;286;22444;-65
2023/12/30 13:20:58;;;;;;;12.80;8.70;;;;;;;10.68;75.71;99635.63;88877;286;136237;-65
2023/12/30 13:23:03;;;;;;;9.50;8.50;;;;;;;10.58;76.19;99638.50;88824;286;185633;-69
2023/12/30 13:25:09;;;;;;;16.00;10.50;;;;;;;10.46;78.61;99640.11;88858;283;136591;-66
2023/12/30 13:27:11;;;;;;;15.10;12.10;;;;;;;10.30;79.49;99636.99;89179;284;23414;-65
2023/12/30 13:29:15;;;;;;;16.90;12.20;;;;;;;10.20;79.76;99639.88;89126;283;135652;-65
2023/12/30 13:31:21;;;;;;;17.80;12.10;;;;;;;10.20;79.77;99637.96;89268;281;22351;-66
2023/12/30 13:33:23;;;;;;;13.60;11.90;;;;;;;10.17;81.43;99634.14;89114;284;135920;-64
2023/12/30 13:35:29;;;;;;;19.30;14.60;;;;;;;10.07;82.81;99631.34;89493;280;22402;-66
2023/12/30 13:37:31;;;;;;;18.00;14.90;;;;;;;9.99;83.88;99628.00;89106;283;137141;-67
2023/12/30 13:39:39;;;;;;;15.20;12.80;;;;;;;9.91;84.59;99631.17;89182;282;22434;-65
2023/12/30 13:41:42;;;;;;;15.60;12.50;;;;;;;9.89;85.89;99623.19;89151;281;137788;-65
2023/12/30 13:43:46;;;;;;;16.00;12.80;;;;;;;9.90;86.19;99625.13;89257;283;22390;-65
2023/12/30 13:45:49;;;;;;;12.70;11.10;;;;;;;9.87;86.60;99625.02;89275;282;137976;-65
2023/12/30 13:52:17;;;;;;;13.40;11.20;;;;;;;9.83;88.29;99616.73;89436;281;136620;-65
2023/12/30 13:54:22;;;;;;;15.90;11.20;;;;;;;9.84;88.34;99613.23;89450;283;22857;-65
2023/12/30 13:56:23;;;;;;;10.70;9.70;;;;;;;9.83;88.68;99615.11;89353;270;137261;-65
2023/12/30 13:58:28;;;;;;;13.30;10.30;;;;;;;9.81;89.60;99613.83;89427;270;22893;-64
2023/12/30 14:00:30;;;;;;;15.10;11.00;;;;;;;9.80;90.36;99606.98;89349;282;136956;-63
2023/12/30 14:02:38;;;;;;;12.80;11.10;;;;;;;9.83;90.20;99606.10;89799;270;22488;-65
2023/12/30 14:04:40;;;;;;;11.10;9.50;;;;;;;9.88;89.96;99598.16;89485;266;136978;-71
2023/12/30 14:06:43;;;;;;;11.70;10.50;;;;;;;9.84;89.71;99599.15;89724;270;22901;-66
2023/12/30 14:08:44;;;;;;;11.90;8.90;;;;;;;9.78;90.37;99600.96;90090;264;135616;-65
2023/12/30 14:10:50;;;;;;;14.20;10.40;;;;;;;9.72;90.67;99599.36;90447;268;22888;-65
2023/12/30 14:12:59;;;;;;;10.20;9.10;;;;;;;9.69;90.53;99603.11;90051;265;135447;-65
2023/12/30 14:15:11;;;;;;;11.20;10.10;;;;;;;9.68;90.79;99598.86;90131;265;22341;-66
2023/12/30 14:17:14;;;;;;;15.20;11.40;;;;;;;9.59;91.65;99596.73;90023;270;135845;-66
2023/12/30 14:19:16;;;;;;;12.10;10.10;;;;;;;9.54;92.34;99593.70;90014;274;22213;-64
2023/12/30 14:21:18;;;;;;;14.20;11.20;;;;;;;9.50;92.48;99594.79;89805;272;135744;-66
2023/12/30 14:23:20;;;;;;;10.00;9.00;;;;;;;9.46;92.82;99594.19;89942;275;22249;-64
2023/12/30 14:25:21;;;;;;;13.50;9.30;;;;;;;9.43;93.11;99592.80;89808;267;136101;-65
2023/12/30 14:27:23;;;;;;;11.50;10.00;;;;;;;9.43;93.22;99592.39;89997;266;22881;-63
2023/12/30 14:29:25;;;;;;;15.00;9.90;;;;;;;9.48;92.59;99593.35;89988;266;135949;-64
2023/12/30 14:31:27;;;;;;;11.70;8.80;;;;;;;9.49;92.41;99589.91;90032;266;22733;-65
2023/12/30 14:33:29;;;;;;;10.60;9.20;;;;;;;9.45;92.41;99589.73;89900;266;136944;-65
2023/12/30 14:35:30;;;;;;;9.90;8.80;;;;;;;9.41;92.44;99584.52;89855;267;22323;-64
2023/12/30 14:37:32;;;;;;;10.00;9.00;;;;;;;9.39;92.62;99580.14;89958;266;136440;-66
2023/12/30 14:39:35;;;;;;;11.50;9.20;;;;;;;9.36;92.54;99577.27;89984;266;22981;-66
2023/12/30 14:41:37;;;;;;;9.70;8.70;;;;;;;9.34;92.33;99576.06;89578;270;137918;-64
2023/12/30 14:43:39;;;;;;;11.10;9.80;;;;;;;9.27;92.46;99579.93;89945;273;22376;-64
2023/12/30 14:45:40;;;;;;;9.90;8.90;;;;;;;9.25;92.47;99580.98;89955;262;135420;-66
2023/12/30 14:47:43;;;;;;;13.90;11.30;;;;;;;9.32;91.79;99582.19;90003;273;22335;-65
2023/12/30 14:49:44;;;;;;;10.90;8.80;;;;;;;9.33;91.73;99582.03;89799;266;137500;-66
2023/12/30 14:51:47;;;;;;;9.90;8.80;;;;;;;9.42;90.89;99585.59;89867;267;22325;-66
2023/12/30 14:53:49;;;;;;;12.60;8.90;;;;;;;9.41;90.73;99584.52;89838;266;137133;-66
2023/12/30 14:55:51;;;;;;;10.90;9.20;;;;;;;9.31;90.86;99588.50;89820;267;22854;-65
2023/12/30 14:57:53;;;;;;;9.80;8.70;;;;;;;9.26;90.95;99592.98;89780;267;134980;-66
2023/12/30 14:59:54;;;;;;;12.30;9.30;;;;;;;9.19;91.18;99581.04;89979;266;22330;-65
2023/12/30 15:01:56;;;;;;;10.10;9.00;;;;;;;9.13;91.54;99583.30;90020;262;136137;-65
2023/12/30 15:04:01;;;;;;;12.80;10.10;;;;;;;9.11;91.68;99581.16;90196;261;22327;-64
2023/12/30 15:06:03;;;;;;;10.40;9.40;;;;;;;9.08;91.64;99579.27;89942;266;22330;-65
2023/12/30 15:08:06;;;;;;;10.50;8.50;;;;;;;9.05;91.65;99582.20;89904;266;136681;-64
2023/12/30 15:10:10;;;;;;;11.80;10.30;;;;;;;9.07;91.77;99591.41;90034;266;23091;-65
2023/12/30 15:12:11;;;;;;;11.70;9.70;;;;;;;9.10;91.45;99591.96;89875;267;135639;-66
2023/12/30 15:14:13;;;;;;;10.60;9.00;;;;;;;9.14;91.09;99592.22;90126;265;22399;-66
2023/12/30 15:16:15;;;;;;;9.60;8.60;;;;;;;9.22;90.66;99589.73;90007;265;137143;-65
2023/12/30 15:18:17;;;;;;;10.80;9.50;;;;;;;9.30;90.06;99590.05;90260;267;22349;-67
2023/12/30 15:20:19;;;;;;;10.00;9.00;;;;;;;9.29;89.82;99594.66;89947;273;137967;-66
2023/12/30 15:22:21;;;;;;;10.20;8.70;;;;;;;9.25;89.86;99591.83;89933;267;22253;-65
2023/12/30 15:24:23;;;;;;;11.10;8.40;;;;;;;9.21;90.06;99592.53;90173;266;135866;-65
2023/12/30 15:26:24;;;;;;;9.90;8.90;;;;;;;9.19;90.16;99592.73;90047;265;22222;-64
2023/12/30 15:28:26;;;;;;;10.30;9.20;;;;;;;9.17;89.75;99591.55;89908;274;137058;-66
2023/12/30 15:30:30;;;;;;;9.40;8.40;;;;;;;9.12;90.14;99586.08;90018;266;22424;-72
2023/12/30 15:32:32;;;;;;;9.50;8.50;;;;;;;9.16;89.79;99588.75;90004;273;134284;-74
2023/12/30 15:34:36;;;;;;;9.40;8.50;;;;;;;9.12;90.05;99586.66;90078;270;23246;-70
2023/12/30 15:36:38;;;;;;;13.50;8.70;;;;;;;9.06;90.19;99582.16;89936;266;136291;-72
2023/12/30 15:38:40;;;;;;;13.30;8.50;;;;;;;9.03;90.50;99587.96;90060;273;22421;-71
2023/12/30 15:40:43;;;;;;;11.50;7.30;;;;;;;9.05;90.48;99586.04;89997;271;137259;-70
2023/12/30 15:42:46;;;;;;;8.50;7.30;;;;;;;9.09;90.28;99583.20;90043;269;22380;-70
2023/12/30 15:44:48;;;;;;;10.10;9.20;;;;;;;9.13;90.24;99580.16;89994;266;135958;-72
2023/12/30 15:46:50;;;;;;;8.60;7.70;;;;;;;9.13;90.01;99579.38;90088;273;23158;-71
2023/12/30 15:48:52;;;;;;;9.00;7.90;;;;;;;9.11;90.12;99571.14;90099;263;136495;-72
2023/12/30 15:50:54;;;;;;;8.40;7.60;;;;;;;9.08;90.18;99578.85;90050;273;22238;-69
2023/12/30 15:52:57;;;;;;;8.20;7.00;;;;;;;9.06;90.28;99574.48;89808;272;136401;-65
2023/12/30 15:54:59;;;;;;;9.40;7.40;;;;;;;9.05;90.53;99567.39;90103;270;22470;-71
2023/12/30 15:57:02;;;;;;;11.90;8.60;;;;;;;9.04;90.68;99564.65;89914;267;135430;-72
2023/12/30 15:59:04;;;;;;;9.20;7.80;;;;;;;9.04;90.71;99562.04;89869;275;22233;-72
2023/12/30 16:01:06;;;;;;;9.10;7.60;;;;;;;9.04;90.56;99564.19;89978;273;136689;-72
2023/12/30 16:03:07;;;;;;;9.70;8.00;;;;;;;9.03;90.85;99567.27;89992;267;22998;-72
2023/12/30 16:05:11;;;;;;;11.30;8.10;;;;;;;9.07;90.61;99554.33;90096;270;136492;-71
2023/12/30 16:07:14;;;;;;;11.40;8.30;;;;;;;9.13;90.39;99556.71;90076;270;22424;-74
2023/12/30 16:09:16;;;;;;;8.10;7.00;;;;;;;9.18;90.15;99550.48;90005;269;136188;-71
2023/12/30 16:11:18;;;;;;;8.10;7.30;;;;;;;9.21;90.01;99548.12;90012;273;22835;-69
2023/12/30 16:13:20;;;;;;;9.50;8.40;;;;;;;9.21;90.15;99542.80;89863;266;136349;-71
2023/12/30 16:15:21;;;;;;;7.70;6.80;;;;;;;9.22;89.89;99551.39;90093;273;22351;-68
2023/12/30 16:17:23;;;;;;;10.30;8.20;;;;;;;9.21;89.94;99549.63;89866;273;136415;-72
2023/12/30 16:19:25;;;;;;;8.00;6.90;;;;;;;9.20;89.95;99557.35;90071;273;22396;-74
2023/12/30 16:21:27;;;;;;;10.30;7.70;;;;;;;9.18;90.06;99557.34;90014;266;136956;-71
2023/12/30 16:23:29;;;;;;;8.30;7.50;;;;;;;9.19;89.97;99564.92;90031;270;22360;-70
2023/12/30 16:25:30;;;;;;;8.90;7.50;;;;;;;9.18;89.94;99557.55;89934;266;136452;-70
2023/12/30 16:27:32;;;;;;;9.10;6.80;;;;;;;9.19;89.91;99561.02;89828;275;22234;-73
2023/12/30 16:29:40;;;;;;;7.60;6.80;;;;;;;9.19;89.73;99557.46;90048;272;135585;-73
2023/12/30 16:31:42;;;;;;;9.60;7.00;;;;;;;9.19;89.93;99555.10;90287;261;22356;-71
2023/12/30 16:33:44;;;;;;;6.80;6.00;;;;;;;9.22;89.53;99549.68;89824;271;137589;-72
2023/12/30 16:35:48;;;;;;;7.90;7.10;;;;;;;9.26;89.62;99556.02;90088;266;23184;-73
2023/12/30 16:37:51;;;;;;;8.20;6.90;;;;;;;9.31;89.31;99554.05;89840;265;137417;-68
2023/12/30 16:39:54;;;;;;;7.70;7.00;;;;;;;9.31;89.38;99545.73;90093;266;23077;-73
2023/12/30 16:41:56;;;;;;;7.20;6.20;;;;;;;9.29;89.51;99554.61;89967;273;136553;-74
2023/12/30 16:43:58;;;;;;;7.10;6.40;;;;;;;9.29;89.69;99555.22;90071;266;22225;-73
2023/12/30 16:46:00;;;;;;;7.00;5.50;;;;;;;9.32;89.33;99547.79;89982;265;135451;-70
2023/12/30 16:48:02;;;;;;;8.60;6.90;;;;;;;9.31;89.03;99539.23;90072;262;22858;-74
2023/12/30 16:50:08;;;;;;;11.80;6.70;;;;;;;9.31;88.97;99538.70;90272;262;22372;-72
2023/12/30 16:52:10;;;;;;;6.90;6.30;;;;;;;9.29;89.17;99542.46;89941;273;136258;-72
2023/12/30 16:54:12;;;;;;;8.20;7.10;;;;;;;9.29;89.05;99536.13;90044;273;22196;-72
2023/12/30 16:56:15;;;;;;;7.30;6.60;;;;;;;9.29;89.04;99538.57;89923;266;136348;-71
2023/12/30 16:58:18;;;;;;;8.50;6.50;;;;;;;9.30;88.99;99539.23;90326;269;22417;-70
2023/12/30 17:00:20;;;;;;;7.40;6.20;;;;;;;9.29;88.89;99546.18;89975;266;135792;-73
2023/12/30 17:02:22;;;;;;;6.10;5.60;;;;;;;9.33;88.65;99549.92;90253;262;22229;-71
2023/12/30 17:04:25;;;;;;;6.50;5.90;;;;;;;9.38;88.40;99556.41;89976;266;137252;-71
2023/12/30 17:06:27;;;;;;;5.60;5.10;;;;;;;9.42;88.18;99554.16;89942;275;22400;-72
2023/12/30 17:08:29;;;;;;;5.90;5.50;;;;;;;9.41;88.18;99555.64;89965;266;136518;-74
2023/12/30 17:10:31;;;;;;;8.00;5.80;;;;;;;9.36;88.21;99553.60;90135;272;22378;-72
2023/12/30 17:12:33;;;;;;;6.50;5.70;;;;;;;9.33;88.38;99551.72;90018;273;136723;-72
2023/12/30 17:14:34;;;;;;;6.40;5.30;;;;;;;9.29;88.46;99546.35;90117;269;23296;-71
2023/12/30 17:16:36;;;;;;;6.40;5.80;;;;;;;9.26;88.70;99551.38;90046;265;135607;-71
2023/12/30 17:18:38;;;;;;;6.70;6.00;;;;;;;9.23;88.91;99549.11;89969;273;22194;-72
2023/12/30 17:20:40;;;;;;;6.10;5.50;;;;;;;9.19;89.06;99550.52;90021;270;135473;-74
2023/12/30 17:22:42;;;;;;;8.50;6.80;;;;;;;9.15;89.32;99553.42;90081;273;22378;-71
2023/12/30 17:24:44;;;;;;;6.30;5.70;;;;;;;9.12;89.60;99549.09;89935;270;138526;-73
2023/12/30 17:26:46;;;;;;;6.80;5.80;;;;;;;9.13;89.53;99552.29;90012;266;22255;-72
2023/12/30 17:28:47;;;;;;;5.90;5.40;;;;;;;9.17;89.31;99551.09;89996;273;136260;-72
2023/12/30 17:30:49;;;;;;;6.00;5.50;;;;;;;9.22;89.35;99549.92;90069;267;22215;-72
2023/12/30 17:32:53;;;;;;;6.70;5.90;;;;;;;9.23;89.03;99548.77;89968;266;135697;-72
2023/12/30 17:34:55;;;;;;;7.80;7.00;;;;;;;9.20;89.13;99551.42;90015;270;22378;-68
2023/12/30 17:36:56;;;;;;;7.10;6.30;;;;;;;9.14;89.43;99548.95;90007;266;136255;-67
2023/12/30 17:39:00;;;;;;;6.70;6.00;;;;;;;9.09;89.78;99549.13;90188;269;22236;-73
2023/12/30 17:41:02;;;;;;;6.30;5.80;;;;;;;9.05;90.05;99541.02;89966;265;135545;-69
2023/12/30 17:43:03;;;;;;;8.90;5.40;;;;;;;9.01;90.42;99540.67;90043;266;23084;-70
2023/12/30 17:45:07;;;;;;;7.40;6.70;;;;;;;8.96;90.73;99547.61;89976;266;136016;-74
2023/12/30 17:47:09;;;;;;;7.20;6.20;;;;;;;8.89;91.00;99533.59;90079;266;22948;-73
2023/12/30 17:49:11;;;;;;;7.60;6.90;;;;;;;8.90;91.05;99536.65;89921;273;136691;-71
2023/12/30 17:51:13;;;;;;;7.80;6.90;;;;;;;8.97;90.68;99535.95;90066;273;22394;-71
2023/12/30 17:53:15;;;;;;;6.20;5.80;;;;;;;9.02;90.45;99531.23;89831;275;137649;-73
2023/12/30 17:55:17;;;;;;;5.30;4.80;;;;;;;9.05;90.29;99538.98;89972;266;23059;-70
2023/12/30 17:57:19;;;;;;;7.00;6.30;;;;;;;9.01;90.57;99539.93;89848;271;136751;-72
2023/12/30 17:59:22;;;;;;;6.50;5.90;;;;;;;8.95;90.71;99547.80;90243;264;22476;-72
2023/12/30 18:01:24;;;;;;;7.60;6.30;;;;;;;8.90;91.05;99551.16;89927;267;135421;-73
2023/12/30 18:03:26;;;;;;;8.90;7.40;;;;;;;8.90;91.02;99541.96;90061;270;22256;-70
2023/12/30 18:05:27;;;;;;;7.90;7.10;;;;;;;8.90;90.95;99542.17;89674;271;135590;-70
2023/12/30 18:07:29;;;;;;;9.50;6.70;;;;;;;8.88;91.16;99542.90;90050;275;22380;-72
2023/12/30 18:09:31;;;;;;;7.90;7.10;;;;;;;8.87;91.49;99544.40;90066;270;138183;-71
2023/12/30 18:11:35;;;;;;;7.20;6.60;;;;;;;8.84;91.40;99547.08;90049;274;22253;-77
2023/12/30 18:13:37;;;;;;;9.70;6.80;;;;;;;8.86;91.43;99548.77;89943;273;138582;-74
2023/12/30 18:15:38;;;;;;;8.10;6.60;;;;;;;8.90;91.34;99548.34;89880;268;22913;-73
2023/12/30 18:17:43;;;;;;;7.60;6.50;;;;;;;8.95;91.13;99551.92;89974;273;136437;-72
2023/12/30 18:19:46;;;;;;;7.60;6.90;;;;;;;8.98;91.01;99548.42;90016;269;22385;-71
2023/12/30 18:21:49;;;;;;;6.80;6.10;;;;;;;8.97;91.01;99551.08;89954;273;135622;-73
2023/12/30 18:23:51;;;;;;;11.80;8.00;;;;;;;8.93;91.19;99548.56;89949;267;23100;-72
2023/12/30 18:25:52;;;;;;;9.00;6.90;;;;;;;8.90;91.05;99547.68;89714;267;136945;-71
2023/12/30 18:27:54;;;;;;;7.80;7.10;;;;;;;8.86;91.56;99550.73;90072;273;22232;-72
2023/12/30 18:29:56;;;;;;;7.30;6.60;;;;;;;8.85;91.43;99547.66;89807;275;137952;-72
2023/12/30 18:31:58;;;;;;;9.60;5.50;;;;;;;8.81;91.52;99548.09;89953;267;22419;-72
2023/12/30 18:33:59;;;;;;;6.70;5.70;;;;;;;8.80;91.44;99546.85;89806;267;135639;-71
2023/12/30 18:36:02;;;;;;;6.80;6.00;;;;;;;8.80;91.21;99544.16;90047;266;22922;-68
2023/12/30 18:38:06;;;;;;;7.50;6.60;;;;;;;8.80;91.28;99547.19;90341;261;22370;-73
2023/12/30 18:40:10;;;;;;;7.50;6.50;;;;;;;8.82;91.10;99552.60;89946;265;136617;-72
2023/12/30 18:42:12;;;;;;;7.30;6.60;;;;;;;8.82;91.31;99558.27;90299;269;22661;-74
2023/12/30 18:44:14;;;;;;;7.30;6.70;;;;;;;8.83;91.34;99561.59;90095;271;138414;-69
2023/12/30 18:46:18;;;;;;;6.60;5.90;;;;;;;8.83;90.99;99564.55;89883;268;22245;-72
2023/12/30 18:48:22;;;;;;;8.60;6.40;;;;;;;8.81;91.00;99568.03;89959;266;136774;-72
2023/12/30 18:50:25;;;;;;;7.90;7.00;;;;;;;8.76;91.32;99569.98;89971;271;22912;-72
2023/12/30 18:52:27;;;;;;;8.10;6.20;;;;;;;8.75;91.32;99566.79;89984;273;135686;-73
2023/12/30 18:54:28;;;;;;;13.00;6.70;;;;;;;8.73;91.45;99575.88;90097;266;22377;-73
2023/12/30 18:56:30;;;;;;;9.00;8.10;;;;;;;8.70;91.69;99585.44;90055;272;137082;-75
2023/12/30 18:58:32;;;;;;;8.00;7.20;;;;;;;8.69;91.82;99591.23;90260;262;22337;-74
2023/12/30 19:00:34;;;;;;;6.90;5.00;;;;;;;8.68;92.05;99593.71;89976;273;137435;-73
2023/12/30 19:02:37;;;;;;;8.80;6.70;;;;;;;8.71;92.11;99589.90;90235;261;22235;-74
2023/12/30 19:04:43;;;;;;;8.30;6.70;;;;;;;8.77;91.64;99587.92;89956;266;136406;-76
2023/12/30 19:06:45;;;;;;;9.70;7.30;;;;;;;8.82;91.45;99588.42;89902;276;22412;-74
2023/12/30 19:08:46;;;;;;;6.90;6.30;;;;;;;8.84;91.57;99589.61;90015;271;135984;-71
2023/12/30 19:10:48;;;;;;;7.30;6.70;;;;;;;8.81;91.51;99590.98;89710;276;22274;-72
2023/12/30 19:12:50;;;;;;;7.20;5.90;;;;;;;8.79;91.59;99594.44;90000;266;135812;-73
2023/12/30 19:14:52;;;;;;;7.80;6.90;;;;;;;8.78;91.55;99595.08;90200;272;22416;-71
2023/12/30 19:16:54;;;;;;;8.40;7.60;;;;;;;8.76;91.28;99604.64;90272;268;136289;-73
2023/12/30 19:18:56;;;;;;;10.20;6.70;;;;;;;8.77;91.03;99602.31;89949;267;22261;-74
2023/12/30 19:20:58;;;;;;;8.10;7.40;;;;;;;8.75;90.94;99600.71;89962;271;135894;-66
2023/12/30 19:23:00;;;;;;;8.40;7.20;;;;;;;8.74;90.80;99608.02;90274;262;22954;-74
2023/12/30 19:25:03;;;;;;;8.80;6.60;;;;;;;8.73;90.42;99604.34;89992;266;135763;-72
2023/12/30 19:27:04;;;;;;;6.50;5.90;;;;;;;8.74;90.22;99606.52;90083;262;22239;-71
2023/12/30 19:29:06;;;;;;;6.40;5.50;;;;;;;8.77;89.66;99602.68;89796;275;135972;-72
2023/12/30 19:31:12;;;;;;;6.60;5.20;;;;;;;8.76;89.14;99601.66;90011;267;22369;-74
2023/12/30 19:33:13;;;;;;;6.90;6.30;;;;;;;8.74;89.29;99606.85;89973;269;136854;-70
2023/12/30 19:35:18;;;;;;;9.10;6.20;;;;;;;8.70;89.27;99610.61;90233;270;22232;-74
2023/12/30 19:37:20;;;;;;;6.20;5.60;;;;;;;8.66;89.26;99620.34;89962;265;135788;-75
2023/12/30 19:39:22;;;;;;;7.30;6.20;;;;;;;8.60;89.52;99622.64;90060;265;22231;-70
2023/12/30 19:41:24;;;;;;;7.00;6.30;;;;;;;8.54;89.51;99621.65;89911;267;136737;-73
2023/12/30 19:43:26;;;;;;;7.30;6.70;;;;;;;8.48;89.58;99620.98;90071;266;23239;-72
2023/12/30 19:45:28;;;;;;;5.70;5.20;;;;;;;8.48;89.31;99619.39;89881;271;135971;-75
2023/12/30 19:47:29;;;;;;;6.30;5.70;;;;;;;8.48;89.40;99622.27;89978;266;23069;-65
2023/12/30 19:49:31;;;;;;;6.40;5.80;;;;;;;8.49;89.17;99622.34;89854;267;135968;-72
2023/12/30 19:51:33;;;;;;;5.90;5.40;;;;;;;8.51;88.92;99630.95;90329;269;22398;-77
2023/12/30 19:53:35;;;;;;;4.80;4.30;;;;;;;8.54;88.79;99630.89;89948;273;137517;-73
2023/12/30 19:55:36;;;;;;;4.90;4.50;;;;;;;8.57;88.50;99635.09;90368;261;23921;-72
2023/12/30 19:57:40;;;;;;;5.20;4.40;;;;;;;8.59;88.16;99632.52;90003;270;135814;-73
2023/12/30 19:59:42;;;;;;;7.00;5.20;;;;;;;8.59;88.19;99635.54;90094;265;22357;-72
2023/12/30 20:01:44;;;;;;;5.30;4.80;;;;;;;8.57;87.93;99635.98;90023;265;136211;-71
2023/12/30 20:03:46;;;;;;;5.80;5.40;;;;;;;8.54;87.75;99633.88;89908;267;22201;-71
2023/12/30 20:05:48;;;;;;;6.70;5.50;;;;;;;8.51;87.74;99633.39;89830;272;135837;-73
2023/12/30 20:07:50;;;;;;;5.40;4.40;;;;;;;8.47;87.55;99641.33;90109;272;22877;-76
2023/12/30 20:09:52;;;;;;;5.50;4.90;;;;;;;8.44;87.63;99649.55;89985;269;135713;-72
2023/12/30 20:11:54;;;;;;;4.60;4.10;;;;;;;8.41;87.70;99652.83;90032;273;22392;-73
2023/12/30 20:13:56;;;;;;;8.80;7.90;;;;;;;8.36;88.00;99652.52;89843;267;135249;-74
2023/12/30 20:15:58;;;;;;;6.00;5.40;;;;;;;8.32;87.86;99649.02;90077;265;22599;-70
2023/12/30 20:18:00;;;;;;;7.10;5.80;;;;;;;8.31;87.80;99651.34;89938;270;136232;-72
2023/12/30 20:20:05;;;;;;;5.00;4.30;;;;;;;8.35;87.68;99655.13;90057;266;22231;-69
2023/12/30 20:22:07;;;;;;;5.30;4.80;;;;;;;8.35;87.52;99657.83;90067;265;22189;-71
2023/12/30 20:24:09;;;;;;;6.20;5.60;;;;;;;8.31;87.64;99663.42;89971;265;137912;-73
2023/12/30 20:26:11;;;;;;;6.30;5.70;;;;;;;8.26;87.65;99664.94;90369;261;22219;-75
2023/12/30 20:28:13;;;;;;;6.20;5.60;;;;;;;8.23;87.96;99666.50;90001;270;136247;-71
2023/12/30 20:30:15;;;;;;;8.50;6.70;;;;;;;8.20;88.11;99668.92;89869;268;22305;-70
2023/12/30 20:32:17;;;;;;;9.20;6.90;;;;;;;8.19;88.14;99673.23;89786;267;136232;-70
2023/12/30 20:34:19;;;;;;;8.30;6.10;;;;;;;8.17;87.84;99673.98;90095;273;22387;-73
2023/12/30 20:36:23;;;;;;;6.50;5.50;;;;;;;8.13;88.17;99675.78;89772;276;135494;-72
2023/12/30 20:38:24;;;;;;;7.30;6.40;;;;;;;8.06;88.71;99683.89;89996;274;22245;-71
2023/12/30 20:40:26;;;;;;;7.10;6.40;;;;;;;8.08;89.10;99689.49;89789;266;137070;-71
2023/12/30 20:42:28;;;;;;;7.90;7.00;;;;;;;8.16;88.43;99684.36;90095;262;22303;-72
2023/12/30 20:44:30;;;;;;;8.20;6.10;;;;;;;8.22;87.97;99681.85;89857;265;136620;-72
2023/12/30 20:46:32;;;;;;;8.00;5.70;;;;;;;8.24;87.69;99686.60;89854;284;22400;-72
2023/12/30 20:48:34;;;;;;;8.90;8.10;;;;;;;8.30;87.62;99689.47;89906;272;135180;-72
2023/12/30 20:50:37;;;;;;;14.80;12.00;;;;;;;8.33;87.35;99695.52;90087;275;22695;-73
2023/12/30 20:52:39;;;;;;;11.80;9.00;;;;;;;8.34;87.09;99701.61;89969;274;136330;-71
2023/12/30 20:54:41;;;;;;;8.10;6.50;;;;;;;8.34;87.24;99701.98;90292;262;22220;-69
2023/12/30 20:56:45;;;;;;;6.70;5.60;;;;;;;8.34;86.64;99705.66;90102;261;136577;-74
2023/12/30 20:58:47;;;;;;;5.30;4.80;;;;;;;8.33;86.76;99708.46;90268;262;22330;-72
2023/12/30 21:00:51;;;;;;;4.40;3.90;;;;;;;8.36;86.71;99710.98;89876;266;136935;-74
2023/12/30 21:02:52;;;;;;;6.80;3.70;;;;;;;8.36;86.27;99710.94;90033;273;22346;-74
2023/12/30 21:04:55;;;;;;;5.70;3.90;;;;;;;8.32;86.51;99718.17;89946;273;135602;-70
2023/12/30 21:06:59;;;;;;;4.40;3.70;;;;;;;8.28;86.39;99717.78;90080;266;22413;-72
2023/12/30 21:09:01;;;;;;;4.80;3.40;;;;;;;8.29;86.51;99718.52;89911;274;137433;-73
2023/12/30 21:11:04;;;;;;;5.10;3.80;;;;;;;8.35;86.07;99719.44;90048;266;22404;-69
2023/12/30 21:13:09;;;;;;;4.80;3.70;;;;;;;8.39;85.93;99718.77;90185;262;138552;-72
2023/12/30 21:15:11;;;;;;;3.70;3.40;;;;;;;8.41;85.65;99721.04;90051;266;22437;-71
2023/12/30 21:17:13;;;;;;;3.80;3.40;;;;;;;8.38;85.44;99722.86;89819;268;137974;-71
2023/12/30 21:19:15;;;;;;;5.30;4.60;;;;;;;8.35;85.36;99725.54;90212;262;23118;-73
2023/12/30 21:21:17;;;;;;;3.60;3.30;;;;;;;8.34;85.36;99729.08;90029;266;136074;-72
2023/12/30 21:23:18;;;;;;;5.20;3.40;;;;;;;8.32;85.71;99730.69;89964;272;189299;-72
2023/12/30 21:25:20;;;;;;;3.30;3.00;;;;;;;8.29;85.49;99733.46;90031;273;136886;-73
2023/12/30 21:27:27;;;;;;;2.90;2.50;;;;;;;8.27;85.46;99736.70;89998;267;22948;-69
2023/12/30 21:29:30;;;;;;;3.70;2.70;;;;;;;8.25;85.41;99732.86;90041;269;136345;-70
2023/12/30 21:31:32;;;;;;;5.60;2.90;;;;;;;8.26;85.07;99734.73;90089;266;22332;-75
2023/12/30 21:33:33;;;;;;;3.60;2.70;;;;;;;8.26;84.66;99736.30;89952;266;135693;-70
2023/12/30 21:35:35;;;;;;;2.00;1.50;;;;;;;8.23;84.35;99736.27;90090;273;22204;-73
2023/12/30 21:37:37;;;;;;;3.60;1.80;;;;;;;8.19;83.14;99741.13;89723;275;136097;-72
2023/12/30 21:39:48;;;;;;;1.90;1.30;;;;;;;8.16;83.00;99745.25;90019;271;22375;-73
2023/12/30 21:41:49;;;;;;;1.50;1.40;;;;;;;8.14;82.70;99742.45;89946;266;136289;-71
2023/12/30 21:43:51;;;;;;;1.90;1.80;;;;;;;8.09;82.89;99742.92;90300;261;22373;-71
2023/12/30 21:45:53;;;;;;;2.10;1.60;;;;;;;8.05;82.92;99749.13;89977;261;136759;-74
2023/12/30 21:47:55;;;;;;;1.70;1.60;;;;;;;8.00;83.18;99747.72;90204;271;22460;-68
2023/12/30 21:49:57;;;;;;;1.80;1.60;;;;;;;7.96;83.08;99745.59;89913;267;136815;-71
2023/12/30 21:51:59;;;;;;;3.30;2.20;;;;;;;7.93;83.23;99750.29;90088;273;22226;-73
2023/12/30 21:54:00;;;;;;;2.40;1.80;;;;;;;7.92;83.23;99751.21;89865;275;135345;-71
2023/12/30 21:56:02;;;;;;;1.90;1.20;;;;;;;7.92;83.24;99753.86;90064;266;22235;-72
2023/12/30 21:58:04;;;;;;;1.60;0.70;;;;;;;7.95;82.98;99756.89;90079;266;23062;-69
2023/12/30 22:00:06;;;;;;;3.70;2.00;;;;;;;7.97;82.52;99757.61;90100;269;136678;-71
2023/12/30 22:02:08;;;;;;;1.40;0.90;;;;;;;8.00;82.19;99757.61;89947;267;22871;-74
2023/12/30 22:04:12;;;;;;;2.10;1.10;;;;;;;8.01;81.79;99761.78;89845;267;136454;-71
2023/12/30 22:06:14;;;;;;;1.90;0.90;;;;;;;8.01;81.86;99763.91;90238;263;22470;-73
2023/12/30 22:08:16;;;;;;;0.90;0.90;;;;;;;8.00;81.97;99761.77;89974;266;136369;-72
2023/12/30 22:10:17;;;;;;;1.20;0.80;;;;;;;7.96;82.10;99765.88;90218;262;22397;-72
2023/12/30 22:12:19;;;;;;;0.90;0.60;;;;;;;7.93;81.88;99763.84;89990;270;135852;-72
2023/12/30 22:14:21;;;;;;;0.50;0.30;;;;;;;7.91;81.99;99762.57;89918;268;22332;-70
2023/12/30 22:16:23;;;;;;;1.10;1.00;;;;;;;7.86;81.62;99765.02;89880;269;135883;-71
2023/12/30 22:18:25;;;;;;;2.30;1.00;;;;;;;7.75;81.98;99766.44;90163;265;22302;-76
2023/12/30 22:20:27;;;;;;;1.80;0.90;;;;;;;7.63;82.64;99773.40;90044;261;137112;-69
2023/12/30 22:22:28;;;;;;;1.30;1.00;;;;;;;7.51;83.40;99768.27;90083;266;22235;-71
2023/12/30 22:24:30;;;;;;;1.70;1.30;;;;;;;7.42;84.12;99771.64;89958;266;135498;-70
2023/12/30 22:26:32;;;;;;;1.60;0.90;;;;;;;7.38;84.67;99768.08;90079;266;22991;-70
2023/12/30 22:28:35;;;;;;;1.30;1.10;;;;;;;7.34;85.19;99771.84;89968;266;135141;-72
2023/12/30 22:30:38;;;;;;;3.50;1.00;;;;;;;7.34;85.12;99773.23;90061;267;22274;-72
2023/12/30 22:32:42;;;;;;;0.70;0.70;;;;;;;7.39;85.09;99776.24;90011;267;136454;-71
2023/12/30 22:34:44;;;;;;;1.50;1.00;;;;;;;7.38;85.09;99775.65;90240;262;22528;-69